sensor_id;sensor_type;location;lat;lon;timestamp;pressure;altitude;pressure_sealevel;temperature;humidity
17615;BME280;8926;49.720;6.576;2023-07-29T00:01:16;99031.19;;;20.32;94.09
17615;BME280;8926;49.720;6.576;2023-07-29T00:03:41;99019.75;;;20.31;93.77
17615;BME280;8926;49.720;6.576;2023-07-29T00:06:06;99018.59;;;20.34;93.57
17615;BME280;8926;49.720;6.576;2023-07-29T00:08:32;99014.13;;;20.34;93.84
17615;BME280;8926;49.720;6.576;2023-07-29T00:10:57;99017.75;;;20.33;93.56
17615;BME280;8926;49.720;6.576;2023-07-29T00:13:22;99009.63;;;20.35;93.48
17615;BME280;8926;49.720;6.576;2023-07-29T00:15:48;99016.59;;;20.36;93.90
17615;BME280;8926;49.720;6.576;2023-07-29T00:18:13;99010.47;;;20.36;93.66
17615;BME280;8926;49.720;6.576;2023-07-29T00:20:38;99014.13;;;20.34;93.48
17615;BME280;8926;49.720;6.576;2023-07-29T00:23:04;99014.13;;;20.34;93.68
17615;BME280;8926;49.720;6.576;2023-07-29T00:25:29;99005.16;;;20.36;93.95
17615;BME280;8926;49.720;6.576;2023-07-29T00:27:55;98998.03;;;20.36;93.91
17615;BME280;8926;49.720;6.576;2023-07-29T00:30:21;99008.16;;;20.32;94.38
17615;BME280;8926;49.720;6.576;2023-07-29T00:32:46;99001.50;;;20.28;95.12
17615;BME280;8926;49.720;6.576;2023-07-29T00:35:11;98999.22;;;20.25;95.15
17615;BME280;8926;49.720;6.576;2023-07-29T00:37:37;99003.03;;;20.23;95.59
17615;BME280;8926;49.720;6.576;2023-07-29T00:40:04;98997.06;;;20.21;95.98
17615;BME280;8926;49.720;6.576;2023-07-29T00:42:33;99004.84;;;20.22;96.15
17615;BME280;8926;49.720;6.576;2023-07-29T00:44:59;98998.72;;;20.22;96.37
17615;BME280;8926;49.720;6.576;2023-07-29T00:47:25;98995.91;;;20.23;96.38
17615;BME280;8926;49.720;6.576;2023-07-29T00:49:51;99002.88;;;20.24;96.39
17615;BME280;8926;49.720;6.576;2023-07-29T00:52:16;98995.56;;;20.26;95.75
17615;BME280;8926;49.720;6.576;2023-07-29T00:54:42;98998.03;;;20.28;95.79
17615;BME280;8926;49.720;6.576;2023-07-29T00:57:08;98998.84;;;20.28;96.08
17615;BME280;8926;49.720;6.576;2023-07-29T00:59:35;98996.88;;;20.30;96.18
17615;BME280;8926;49.720;6.576;2023-07-29T01:02:01;98996.88;;;20.30;96.39
17615;BME280;8926;49.720;6.576;2023-07-29T01:04:27;98991.22;;;20.33;95.96
17615;BME280;8926;49.720;6.576;2023-07-29T01:07:07;98995.53;;;20.34;96.11
17615;BME280;8926;49.720;6.576;2023-07-29T01:09:47;98983.94;;;20.36;96.02
17615;BME280;8926;49.720;6.576;2023-07-29T01:12:23;98974.16;;;20.36;95.95
17615;BME280;8926;49.720;6.576;2023-07-29T01:17:42;98971.66;;;20.34;96.34
17615;BME280;8926;49.720;6.576;2023-07-29T01:20:09;98968.84;;;20.36;96.10
17615;BME280;8926;49.720;6.576;2023-07-29T01:22:37;98969.69;;;20.37;96.05
17615;BME280;8926;49.720;6.576;2023-07-29T01:25:06;98971.38;;;20.38;95.89
17615;BME280;8926;49.720;6.576;2023-07-29T01:27:31;98973.84;;;20.39;96.14
17615;BME280;8926;49.720;6.576;2023-07-29T01:29:57;98973.03;;;20.39;96.30
17615;BME280;8926;49.720;6.576;2023-07-29T01:35:24;98968.53;;;20.39;96.96
17615;BME280;8926;49.720;6.576;2023-07-29T01:37:58;98962.41;;;20.39;96.21
17615;BME280;8926;49.720;6.576;2023-07-29T01:40:27;98973.84;;;20.39;96.32
17615;BME280;8926;49.720;6.576;2023-07-29T01:42:53;98972.03;;;20.40;96.96
17615;BME280;8926;49.720;6.576;2023-07-29T01:45:18;98973.69;;;20.41;96.92
17615;BME280;8926;49.720;6.576;2023-07-29T01:47:44;98964.91;;;20.40;96.85
17615;BME280;8926;49.720;6.576;2023-07-29T01:50:09;98961.25;;;20.41;96.68
17615;BME280;8926;49.720;6.576;2023-07-29T01:52:35;98962.06;;;20.42;96.81
17615;BME280;8926;49.720;6.576;2023-07-29T01:55:01;98966.22;;;20.44;97.32
17615;BME280;8926;49.720;6.576;2023-07-29T01:57:27;98967.06;;;20.45;96.79
17615;BME280;8926;49.720;6.576;2023-07-29T01:59:52;98958.09;;;20.46;96.58
17615;BME280;8926;49.720;6.576;2023-07-29T02:02:17;98972.03;;;20.48;96.50
17615;BME280;8926;49.720;6.576;2023-07-29T02:04:42;98964.72;;;20.50;96.30
17615;BME280;8926;49.720;6.576;2023-07-29T02:07:08;98968.03;;;20.52;96.04
17615;BME280;8926;49.720;6.576;2023-07-29T02:09:33;98968.03;;;20.52;95.88
17615;BME280;8926;49.720;6.576;2023-07-29T02:11:58;98970.69;;;20.52;96.65
17615;BME280;8926;49.720;6.576;2023-07-29T02:14:24;98970.84;;;20.50;96.69
17615;BME280;8926;49.720;6.576;2023-07-29T02:16:49;98960.59;;;20.47;96.52
17615;BME280;8926;49.720;6.576;2023-07-29T02:19:15;98960.75;;;20.46;96.63
17615;BME280;8926;49.720;6.576;2023-07-29T02:21:40;98967.06;;;20.45;97.46
17615;BME280;8926;49.720;6.576;2023-07-29T02:24:06;98956.44;;;20.45;96.84
17615;BME280;8926;49.720;6.576;2023-07-29T02:26:31;98960.09;;;20.44;97.24
17615;BME280;8926;49.720;6.576;2023-07-29T02:28:56;98952.13;;;20.44;97.02
17615;BME280;8926;49.720;6.576;2023-07-29T02:31:23;98936.38;;;20.42;96.72
17615;BME280;8926;49.720;6.576;2023-07-29T02:33:49;98942.50;;;20.43;97.00
17615;BME280;8926;49.720;6.576;2023-07-29T02:36:15;98935.53;;;20.42;97.08
17615;BME280;8926;49.720;6.576;2023-07-29T02:38:41;98931.91;;;20.43;97.35
17615;BME280;8926;49.720;6.576;2023-07-29T02:41:07;98925.59;;;20.44;97.15
17615;BME280;8926;49.720;6.576;2023-07-29T02:43:34;98929.91;;;20.45;96.74
17615;BME280;8926;49.720;6.576;2023-07-29T02:46:00;98922.09;;;20.43;97.17
17615;BME280;8926;49.720;6.576;2023-07-29T02:48:25;98937.19;;;20.43;97.30
17615;BME280;8926;49.720;6.576;2023-07-29T02:50:51;98933.88;;;20.41;97.51
17615;BME280;8926;49.720;6.576;2023-07-29T02:53:16;98925.94;;;20.41;97.62
17615;BME280;8926;49.720;6.576;2023-07-29T02:55:41;98926.94;;;20.40;97.78
17615;BME280;8926;49.720;6.576;2023-07-29T02:58:07;98926.59;;;20.43;97.57
17615;BME280;8926;49.720;6.576;2023-07-29T03:00:32;98923.78;;;20.44;97.23
17615;BME280;8926;49.720;6.576;2023-07-29T03:02:59;98921.94;;;20.45;97.17
17615;BME280;8926;49.720;6.576;2023-07-29T03:05:24;98925.25;;;20.47;97.09
17615;BME280;8926;49.720;6.576;2023-07-29T03:07:49;98929.56;;;20.48;97.08
17615;BME280;8926;49.720;6.576;2023-07-29T03:10:15;98931.22;;;20.49;96.88
17615;BME280;8926;49.720;6.576;2023-07-29T03:12:40;98920.28;;;20.52;96.04
17615;BME280;8926;49.720;6.576;2023-07-29T03:15:06;98924.75;;;20.51;96.73
17615;BME280;8926;49.720;6.576;2023-07-29T03:17:31;98920.28;;;20.52;96.41
17615;BME280;8926;49.720;6.576;2023-07-29T03:19:57;98926.41;;;20.52;97.01
17615;BME280;8926;49.720;6.576;2023-07-29T03:22:22;98928.22;;;20.52;96.60
17615;BME280;8926;49.720;6.576;2023-07-29T03:24:47;98918.63;;;20.51;96.47
17615;BME280;8926;49.720;6.576;2023-07-29T03:27:12;98916.59;;;20.53;96.64
17615;BME280;8926;49.720;6.576;2023-07-29T03:29:40;98904.34;;;20.52;96.94
17615;BME280;8926;49.720;6.576;2023-07-29T03:32:05;98915.78;;;20.52;97.00
17615;BME280;8926;49.720;6.576;2023-07-29T03:34:31;98917.41;;;20.53;96.33
17615;BME280;8926;49.720;6.576;2023-07-29T03:36:57;98916.59;;;20.53;96.60
17615;BME280;8926;49.720;6.576;2023-07-29T03:39:22;98930.88;;;20.52;97.45
17615;BME280;8926;49.720;6.576;2023-07-29T03:41:48;98943.31;;;20.51;97.90
17615;BME280;8926;49.720;6.576;2023-07-29T03:44:13;98929.56;;;20.48;98.00
17615;BME280;8926;49.720;6.576;2023-07-29T03:46:38;98963.41;;;20.46;98.21
17615;BME280;8926;49.720;6.576;2023-07-29T03:49:04;98969.03;;;20.43;99.78
17615;BME280;8926;49.720;6.576;2023-07-29T03:51:29;98943.16;;;20.37;99.25
17615;BME280;8926;49.720;6.576;2023-07-29T03:53:54;98933.19;;;20.30;99.87
17615;BME280;8926;49.720;6.576;2023-07-29T03:56:20;98922.94;;;20.27;100.00
17615;BME280;8926;49.720;6.576;2023-07-29T03:58:46;98914.34;;;20.25;100.00
17615;BME280;8926;49.720;6.576;2023-07-29T04:01:11;98935.88;;;20.22;100.00
17615;BME280;8926;49.720;6.576;2023-07-29T04:03:37;98942.19;;;20.21;99.43
17615;BME280;8926;49.720;6.576;2023-07-29T04:06:02;98944.84;;;20.21;99.12
17615;BME280;8926;49.720;6.576;2023-07-29T04:08:27;98948.50;;;20.20;99.63
17615;BME280;8926;49.720;6.576;2023-07-29T04:10:53;98938.53;;;20.14;98.73
17615;BME280;8926;49.720;6.576;2023-07-29T04:13:18;98939.69;;;20.12;99.86
17615;BME280;8926;49.720;6.576;2023-07-29T04:15:43;98960.09;;;20.11;98.65
17615;BME280;8926;49.720;6.576;2023-07-29T04:18:09;98958.75;;;20.07;98.44
17615;BME280;8926;49.720;6.576;2023-07-29T04:20:34;98964.41;;;20.04;98.50
17615;BME280;8926;49.720;6.576;2023-07-29T04:23:00;98975.69;;;19.98;99.02
17615;BME280;8926;49.720;6.576;2023-07-29T04:25:25;98971.03;;;19.92;100.00
17615;BME280;8926;49.720;6.576;2023-07-29T04:27:50;98966.56;;;19.92;100.00
17615;BME280;8926;49.720;6.576;2023-07-29T04:30:16;98962.41;;;19.90;100.00
17615;BME280;8926;49.720;6.576;2023-07-29T04:32:41;98954.13;;;19.85;99.74
17615;BME280;8926;49.720;6.576;2023-07-29T04:35:08;98957.09;;;19.82;100.00
17615;BME280;8926;49.720;6.576;2023-07-29T04:37:33;98964.41;;;19.80;99.45
17615;BME280;8926;49.720;6.576;2023-07-29T04:39:58;98971.38;;;19.73;98.58
17615;BME280;8926;49.720;6.576;2023-07-29T04:42:23;98970.88;;;19.69;98.73
17615;BME280;8926;49.720;6.576;2023-07-29T04:44:49;98953.31;;;19.68;99.11
17615;BME280;8926;49.720;6.576;2023-07-29T04:47:14;98929.13;;;19.63;99.59
17615;BME280;8926;49.720;6.576;2023-07-29T04:49:39;98916.03;;;19.61;99.98
17615;BME280;8926;49.720;6.576;2023-07-29T04:52:05;98916.03;;;19.61;99.00
17615;BME280;8926;49.720;6.576;2023-07-29T04:54:30;98939.53;;;19.56;99.59
17615;BME280;8926;49.720;6.576;2023-07-29T04:56:56;98947.66;;;19.55;99.70
17615;BME280;8926;49.720;6.576;2023-07-29T04:59:21;98930.91;;;19.54;100.00
17615;BME280;8926;49.720;6.576;2023-07-29T05:01:46;98950.13;;;19.56;100.00
17615;BME280;8926;49.720;6.576;2023-07-29T05:04:12;98946.81;;;19.54;100.00
17615;BME280;8926;49.720;6.576;2023-07-29T05:06:37;98943.50;;;19.52;100.00
17615;BME280;8926;49.720;6.576;2023-07-29T05:09:16;98962.72;;;19.54;99.79
17615;BME280;8926;49.720;6.576;2023-07-29T05:11:42;98963.53;;;19.55;99.52
17615;BME280;8926;49.720;6.576;2023-07-29T05:14:09;98964.22;;;19.57;98.47
17615;BME280;8926;49.720;6.576;2023-07-29T05:16:35;98961.06;;;19.53;98.89
17615;BME280;8926;49.720;6.576;2023-07-29T05:19:00;98963.38;;;19.56;98.45
17615;BME280;8926;49.720;6.576;2023-07-29T05:21:25;98964.38;;;19.55;98.14
17615;BME280;8926;49.720;6.576;2023-07-29T05:23:51;98968.00;;;19.54;98.58
17615;BME280;8926;49.720;6.576;2023-07-29T05:26:16;98981.41;;;19.53;98.36
17615;BME280;8926;49.720;6.576;2023-07-29T05:28:41;98993.16;;;19.50;98.58
17615;BME280;8926;49.720;6.576;2023-07-29T05:31:07;98998.78;;;19.47;99.15
17615;BME280;8926;49.720;6.576;2023-07-29T05:33:32;98999.44;;;19.41;99.12
17615;BME280;8926;49.720;6.576;2023-07-29T05:35:57;98987.16;;;19.40;100.00
17615;BME280;8926;49.720;6.576;2023-07-29T05:38:23;98986.03;;;19.43;100.00
17615;BME280;8926;49.720;6.576;2023-07-29T05:40:49;98986.53;;;19.46;100.00
17615;BME280;8926;49.720;6.576;2023-07-29T05:43:14;98991.19;;;19.52;99.95
17615;BME280;8926;49.720;6.576;2023-07-29T05:45:40;99002.78;;;19.51;99.76
17615;BME280;8926;49.720;6.576;2023-07-29T05:48:05;99009.41;;;19.55;99.20
17615;BME280;8926;49.720;6.576;2023-07-29T05:50:31;99010.41;;;19.54;97.90
17615;BME280;8926;49.720;6.576;2023-07-29T05:52:56;99006.25;;;19.52;98.17
17615;BME280;8926;49.720;6.576;2023-07-29T05:55:21;99014.72;;;19.55;97.47
17615;BME280;8926;49.720;6.576;2023-07-29T05:57:47;99020.69;;;19.57;97.57
17615;BME280;8926;49.720;6.576;2023-07-29T06:00:12;99023.34;;;19.57;97.53
17615;BME280;8926;49.720;6.576;2023-07-29T06:02:37;99020.00;;;19.55;97.60
17615;BME280;8926;49.720;6.576;2023-07-29T06:05:03;99024.31;;;19.56;98.39
17615;BME280;8926;49.720;6.576;2023-07-29T06:07:29;99008.09;;;19.59;98.53
17615;BME280;8926;49.720;6.576;2023-07-29T06:09:55;99010.78;;;19.68;98.35
17615;BME280;8926;49.720;6.576;2023-07-29T06:12:21;99013.41;;;19.76;97.58
17615;BME280;8926;49.720;6.576;2023-07-29T06:14:46;99001.34;;;19.81;96.54
17615;BME280;8926;49.720;6.576;2023-07-29T06:17:11;99004.50;;;19.85;96.69
17615;BME280;8926;49.720;6.576;2023-07-29T06:19:37;99022.72;;;19.88;95.74
17615;BME280;8926;49.720;6.576;2023-07-29T06:22:03;99026.06;;;19.90;95.89
17615;BME280;8926;49.720;6.576;2023-07-29T06:24:29;99018.75;;;19.92;96.60
17615;BME280;8926;49.720;6.576;2023-07-29T06:26:54;99007.16;;;20.01;96.33
17615;BME280;8926;49.720;6.576;2023-07-29T06:29:20;99003.19;;;20.13;95.68
17615;BME280;8926;49.720;6.576;2023-07-29T06:31:45;99021.75;;;20.21;93.99
17615;BME280;8926;49.720;6.576;2023-07-29T06:34:10;99020.09;;;20.28;93.69
17615;BME280;8926;49.720;6.576;2023-07-29T06:36:36;99021.41;;;20.32;93.84
17615;BME280;8926;49.720;6.576;2023-07-29T06:39:01;99025.72;;;20.33;93.51
17615;BME280;8926;49.720;6.576;2023-07-29T06:41:26;99023.06;;;20.33;92.80
17615;BME280;8926;49.720;6.576;2023-07-29T06:43:51;99027.03;;;20.29;93.40
17615;BME280;8926;49.720;6.576;2023-07-29T06:46:17;99023.41;;;20.30;94.97
17615;BME280;8926;49.720;6.576;2023-07-29T06:48:42;99025.06;;;20.31;93.71
17615;BME280;8926;49.720;6.576;2023-07-29T06:51:07;99030.03;;;20.34;94.31
17615;BME280;8926;49.720;6.576;2023-07-29T06:53:33;99033.69;;;20.33;94.35
17615;BME280;8926;49.720;6.576;2023-07-29T06:55:58;99025.75;;;20.42;94.70
17615;BME280;8926;49.720;6.576;2023-07-29T06:58:24;99038.50;;;20.54;94.25
17615;BME280;8926;49.720;6.576;2023-07-29T07:00:49;99035.69;;;20.64;92.54
17615;BME280;8926;49.720;6.576;2023-07-29T07:03:14;99039.31;;;20.63;92.82
17615;BME280;8926;49.720;6.576;2023-07-29T07:05:39;99050.28;;;20.60;93.40
17615;BME280;8926;49.720;6.576;2023-07-29T07:08:05;99043.97;;;20.53;92.96
17615;BME280;8926;49.720;6.576;2023-07-29T07:10:30;99047.66;;;20.44;93.67
17615;BME280;8926;49.720;6.576;2023-07-29T07:12:55;99037.19;;;20.42;94.34
17615;BME280;8926;49.720;6.576;2023-07-29T07:15:21;99039.03;;;20.42;93.11
17615;BME280;8926;49.720;6.576;2023-07-29T07:17:46;99051.59;;;20.31;93.58
17615;BME280;8926;49.720;6.576;2023-07-29T07:20:11;99057.22;;;20.28;93.86
17615;BME280;8926;49.720;6.576;2023-07-29T07:22:37;99053.94;;;20.26;93.90
17615;BME280;8926;49.720;6.576;2023-07-29T07:25:03;99055.91;;;20.32;94.63
17615;BME280;8926;49.720;6.576;2023-07-29T07:27:28;99046.97;;;20.42;95.03
17615;BME280;8926;49.720;6.576;2023-07-29T07:29:53;99049.31;;;20.45;93.83
17615;BME280;8926;49.720;6.576;2023-07-29T07:32:19;99052.59;;;20.55;94.17
17615;BME280;8926;49.720;6.576;2023-07-29T07:34:44;99051.94;;;20.69;94.19
17615;BME280;8926;49.720;6.576;2023-07-29T07:37:09;99054.72;;;20.84;94.05
17615;BME280;8926;49.720;6.576;2023-07-29T07:39:34;99034.28;;;20.92;93.96
17615;BME280;8926;49.720;6.576;2023-07-29T07:42:00;99036.94;;;21.00;93.66
17615;BME280;8926;49.720;6.576;2023-07-29T07:44:25;99032.22;;;21.11;92.04
17615;BME280;8926;49.720;6.576;2023-07-29T07:46:52;99026.50;;;21.92;90.68
17615;BME280;8926;49.720;6.576;2023-07-29T07:49:17;99024.91;;;22.66;87.78
17615;BME280;8926;49.720;6.576;2023-07-29T07:51:43;99015.84;;;23.34;84.13
17615;BME280;8926;49.720;6.576;2023-07-29T07:54:09;99013.47;;;23.96;82.29
17615;BME280;8926;49.720;6.576;2023-07-29T07:56:34;99021.19;;;24.27;80.30
17615;BME280;8926;49.720;6.576;2023-07-29T07:59:00;99022.78;;;24.78;79.03
17615;BME280;8926;49.720;6.576;2023-07-29T08:01:25;99022.09;;;24.69;75.69
17615;BME280;8926;49.720;6.576;2023-07-29T08:03:50;99021.31;;;24.41;77.37
17615;BME280;8926;49.720;6.576;2023-07-29T08:06:15;99038.19;;;24.05;78.06
17615;BME280;8926;49.720;6.576;2023-07-29T08:08:41;99031.00;;;23.84;79.25
17615;BME280;8926;49.720;6.576;2023-07-29T08:11:06;99036.72;;;23.81;78.65
17615;BME280;8926;49.720;6.576;2023-07-29T08:13:31;99038.44;;;23.53;79.22
17615;BME280;8926;49.720;6.576;2023-07-29T08:15:57;99044.81;;;23.37;79.91
17615;BME280;8926;49.720;6.576;2023-07-29T08:18:22;99040.22;;;23.31;80.23
17615;BME280;8926;49.720;6.576;2023-07-29T08:20:54;99034.88;;;23.31;80.08
17615;BME280;8926;49.720;6.576;2023-07-29T08:23:21;99028.81;;;23.37;80.29
17615;BME280;8926;49.720;6.576;2023-07-29T08:25:52;99029.53;;;23.31;79.48
17615;BME280;8926;49.720;6.576;2023-07-29T08:28:17;99025.97;;;23.24;79.28
17615;BME280;8926;49.720;6.576;2023-07-29T08:30:43;99031.31;;;23.09;79.94
17615;BME280;8926;49.720;6.576;2023-07-29T08:33:08;99027.81;;;22.94;80.20
17615;BME280;8926;49.720;6.576;2023-07-29T08:35:33;99025.16;;;22.79;80.57
17615;BME280;8926;49.720;6.576;2023-07-29T08:37:58;99031.16;;;22.73;80.94
17615;BME280;8926;49.720;6.576;2023-07-29T08:40:27;99024.63;;;22.61;80.66
17615;BME280;8926;49.720;6.576;2023-07-29T08:42:56;99027.94;;;22.63;80.63
17615;BME280;8926;49.720;6.576;2023-07-29T08:45:24;99029.22;;;22.67;81.50
17615;BME280;8926;49.720;6.576;2023-07-29T08:47:50;99032.19;;;22.72;80.83
17615;BME280;8926;49.720;6.576;2023-07-29T08:50:19;99030.75;;;22.99;81.08
17615;BME280;8926;49.720;6.576;2023-07-29T08:52:46;99016.59;;;23.79;77.36
17615;BME280;8926;49.720;6.576;2023-07-29T08:55:11;99010.94;;;24.31;74.74
17615;BME280;8926;49.720;6.576;2023-07-29T08:57:37;99019.97;;;24.58;71.92
17615;BME280;8926;49.720;6.576;2023-07-29T09:00:03;99017.63;;;24.42;71.17
17615;BME280;8926;49.720;6.576;2023-07-29T09:02:29;99015.84;;;24.83;70.65
17615;BME280;8926;49.720;6.576;2023-07-29T09:04:54;99008.72;;;24.62;68.74
17615;BME280;8926;49.720;6.576;2023-07-29T09:07:20;99015.56;;;24.22;70.87
17615;BME280;8926;49.720;6.576;2023-07-29T09:09:45;99019.69;;;24.74;69.92
17615;BME280;8926;49.720;6.576;2023-07-29T09:12:11;99032.09;;;25.16;67.69
17615;BME280;8926;49.720;6.576;2023-07-29T09:14:37;99029.25;;;25.65;67.42
17615;BME280;8926;49.720;6.576;2023-07-29T09:17:02;99029.53;;;26.10;66.11
17615;BME280;8926;49.720;6.576;2023-07-29T09:19:27;99029.56;;;26.30;64.97
17615;BME280;8926;49.720;6.576;2023-07-29T09:21:53;99019.69;;;26.50;63.85
17615;BME280;8926;49.720;6.576;2023-07-29T09:24:20;99025.41;;;26.27;65.14
17615;BME280;8926;49.720;6.576;2023-07-29T09:26:52;99020.53;;;26.44;62.26
17615;BME280;8926;49.720;6.576;2023-07-29T09:29:22;99021.53;;;26.63;61.03
17615;BME280;8926;49.720;6.576;2023-07-29T09:31:49;99031.00;;;26.19;62.69
17615;BME280;8926;49.720;6.576;2023-07-29T09:34:15;99035.66;;;25.84;61.45
17615;BME280;8926;49.720;6.576;2023-07-29T09:36:40;99034.00;;;25.70;61.47
17615;BME280;8926;49.720;6.576;2023-07-29T09:39:11;99033.41;;;25.33;61.23
17615;BME280;8926;49.720;6.576;2023-07-29T09:41:37;99040.88;;;25.51;61.57
17615;BME280;8926;49.720;6.576;2023-07-29T09:44:03;99035.13;;;25.54;61.19
17615;BME280;8926;49.720;6.576;2023-07-29T09:46:34;99027.44;;;25.99;60.10
17615;BME280;8926;49.720;6.576;2023-07-29T09:48:59;99040.59;;;25.81;60.69
17615;BME280;8926;49.720;6.576;2023-07-29T09:51:24;99033.84;;;25.37;60.91
17615;BME280;8926;49.720;6.576;2023-07-29T09:53:51;99052.31;;;25.32;61.76
17615;BME280;8926;49.720;6.576;2023-07-29T09:56:17;99044.56;;;25.50;60.94
17615;BME280;8926;49.720;6.576;2023-07-29T09:58:45;99056.41;;;25.76;60.75
17615;BME280;8926;49.720;6.576;2023-07-29T10:01:11;99041.88;;;26.11;57.35
17615;BME280;8926;49.720;6.576;2023-07-29T10:03:37;99041.13;;;26.44;56.93
17615;BME280;8926;49.720;6.576;2023-07-29T10:06:03;99031.81;;;26.53;55.35
17615;BME280;8926;49.720;6.576;2023-07-29T10:08:30;99028.97;;;26.48;54.75
17615;BME280;8926;49.720;6.576;2023-07-29T10:10:59;99038.63;;;26.62;55.10
17615;BME280;8926;49.720;6.576;2023-07-29T10:13:25;99019.63;;;26.83;54.83
17615;BME280;8926;49.720;6.576;2023-07-29T10:15:51;99026.66;;;26.97;55.26
17615;BME280;8926;49.720;6.576;2023-07-29T10:18:18;99030.16;;;26.85;53.98
17615;BME280;8926;49.720;6.576;2023-07-29T10:20:44;99016.75;;;26.91;53.27
17615;BME280;8926;49.720;6.576;2023-07-29T10:23:10;99018.75;;;27.16;53.54
17615;BME280;8926;49.720;6.576;2023-07-29T10:25:43;99035.72;;;26.83;51.80
17615;BME280;8926;49.720;6.576;2023-07-29T10:28:12;99026.69;;;26.45;52.40
17615;BME280;8926;49.720;6.576;2023-07-29T10:30:38;99033.22;;;25.96;52.84
17615;BME280;8926;49.720;6.576;2023-07-29T10:33:04;99048.78;;;25.73;56.22
17615;BME280;8926;49.720;6.576;2023-07-29T10:35:32;99048.78;;;25.73;57.19
17615;BME280;8926;49.720;6.576;2023-07-29T10:37:59;99041.88;;;26.11;55.82
17615;BME280;8926;49.720;6.576;2023-07-29T10:40:25;99053.13;;;25.74;57.13
17615;BME280;8926;49.720;6.576;2023-07-29T10:45:25;99055.13;;;25.17;58.28
17615;BME280;8926;49.720;6.576;2023-07-29T10:47:51;99050.31;;;25.47;57.09
17615;BME280;8926;49.720;6.576;2023-07-29T10:50:20;99045.56;;;26.03;57.84
17615;BME280;8926;49.720;6.576;2023-07-29T10:52:52;99040.69;;;26.33;56.90
17615;BME280;8926;49.720;6.576;2023-07-29T10:55:35;99044.41;;;26.32;55.58
17615;BME280;8926;49.720;6.576;2023-07-29T10:58:11;99030.19;;;26.65;55.09
17615;BME280;8926;49.720;6.576;2023-07-29T11:00:38;99038.88;;;26.47;54.57
17615;BME280;8926;49.720;6.576;2023-07-29T11:03:06;99042.75;;;26.71;53.58
17615;BME280;8926;49.720;6.576;2023-07-29T11:05:51;99034.47;;;26.79;53.80
17615;BME280;8926;49.720;6.576;2023-07-29T11:08:19;99032.00;;;26.84;52.76
17615;BME280;8926;49.720;6.576;2023-07-29T11:13:32;99015.94;;;26.97;52.44
17615;BME280;8926;49.720;6.576;2023-07-29T11:15:58;99018.38;;;27.06;51.61
17615;BME280;8926;49.720;6.576;2023-07-29T11:18:28;99021.03;;;27.19;51.98
17615;BME280;8926;49.720;6.576;2023-07-29T11:20:54;99018.34;;;27.19;50.65
17615;BME280;8926;49.720;6.576;2023-07-29T11:23:27;99025.25;;;26.62;51.94
17615;BME280;8926;49.720;6.576;2023-07-29T11:25:52;99022.50;;;26.02;52.39
17615;BME280;8926;49.720;6.576;2023-07-29T11:28:17;99020.47;;;25.98;53.95
17615;BME280;8926;49.720;6.576;2023-07-29T11:30:43;99023.97;;;26.18;53.42
17615;BME280;8926;49.720;6.576;2023-07-29T11:33:09;99024.22;;;26.50;52.85
17615;BME280;8926;49.720;6.576;2023-07-29T11:35:35;99006.88;;;26.72;51.33
17615;BME280;8926;49.720;6.576;2023-07-29T11:38:00;99014.09;;;26.65;49.90
17615;BME280;8926;49.720;6.576;2023-07-29T11:40:25;99010.56;;;26.91;50.07
17615;BME280;8926;49.720;6.576;2023-07-29T11:42:52;99013.88;;;26.99;49.02
17615;BME280;8926;49.720;6.576;2023-07-29T11:45:18;99014.06;;;26.98;49.51
17615;BME280;8926;49.720;6.576;2023-07-29T11:47:44;99012.97;;;27.19;49.28
17615;BME280;8926;49.720;6.576;2023-07-29T11:50:11;99018.94;;;27.27;48.89
17615;BME280;8926;49.720;6.576;2023-07-29T11:52:41;99012.56;;;27.22;50.62
17615;BME280;8926;49.720;6.576;2023-07-29T11:55:07;99020.78;;;27.27;50.03
17615;BME280;8926;49.720;6.576;2023-07-29T11:57:35;99007.97;;;27.29;49.98
17615;BME280;8926;49.720;6.576;2023-07-29T12:00:05;99015.06;;;27.03;50.65
17615;BME280;8926;49.720;6.576;2023-07-29T12:02:32;99007.84;;;27.11;49.87
17615;BME280;8926;49.720;6.576;2023-07-29T12:04:58;99007.66;;;26.86;49.78
17615;BME280;8926;49.720;6.576;2023-07-29T12:07:23;99014.50;;;26.75;50.53
17615;BME280;8926;49.720;6.576;2023-07-29T12:09:50;99017.19;;;26.62;51.40
17615;BME280;8926;49.720;6.576;2023-07-29T12:12:15;99006.72;;;26.41;51.68
17615;BME280;8926;49.720;6.576;2023-07-29T12:14:44;99013.91;;;26.20;51.90
17615;BME280;8926;49.720;6.576;2023-07-29T12:17:10;99007.31;;;26.23;52.96
17615;BME280;8926;49.720;6.576;2023-07-29T12:19:37;99003.38;;;26.52;52.50
17615;BME280;8926;49.720;6.576;2023-07-29T12:22:04;98992.50;;;26.47;50.81
17615;BME280;8926;49.720;6.576;2023-07-29T12:24:30;98986.69;;;26.76;50.47
17615;BME280;8926;49.720;6.576;2023-07-29T12:26:56;98997.75;;;26.93;50.54
17615;BME280;8926;49.720;6.576;2023-07-29T12:29:22;98987.88;;;26.93;49.72
17615;BME280;8926;49.720;6.576;2023-07-29T12:31:49;98999.22;;;26.82;49.98
17615;BME280;8926;49.720;6.576;2023-07-29T12:34:22;98996.13;;;26.85;50.18
17615;BME280;8926;49.720;6.576;2023-07-29T12:36:49;98976.94;;;26.88;49.83
17615;BME280;8926;49.720;6.576;2023-07-29T12:39:19;98985.03;;;26.75;49.71
17615;BME280;8926;49.720;6.576;2023-07-29T12:41:45;98984.63;;;26.65;49.77
17615;BME280;8926;49.720;6.576;2023-07-29T12:44:10;98990.00;;;26.65;50.55
17615;BME280;8926;49.720;6.576;2023-07-29T12:46:35;98978.38;;;26.84;50.07
17615;BME280;8926;49.720;6.576;2023-07-29T12:49:01;98984.16;;;26.94;50.20
17615;BME280;8926;49.720;6.576;2023-07-29T12:51:26;98978.78;;;26.94;50.23
17615;BME280;8926;49.720;6.576;2023-07-29T12:53:51;98984.78;;;26.90;49.89
17615;BME280;8926;49.720;6.576;2023-07-29T12:56:17;98985.81;;;26.89;49.36
17615;BME280;8926;49.720;6.576;2023-07-29T12:58:42;98983.81;;;26.58;50.52
17615;BME280;8926;49.720;6.576;2023-07-29T13:01:07;98984.63;;;26.52;50.59
17615;BME280;8926;49.720;6.576;2023-07-29T13:03:34;98994.13;;;26.41;50.47
17615;BME280;8926;49.720;6.576;2023-07-29T13:05:59;98992.91;;;26.37;51.10
17615;BME280;8926;49.720;6.576;2023-07-29T13:08:24;98998.69;;;26.41;50.73
17615;BME280;8926;49.720;6.576;2023-07-29T13:10:50;98985.03;;;26.55;50.54
17615;BME280;8926;49.720;6.576;2023-07-29T13:13:15;98985.88;;;26.69;49.77
17615;BME280;8926;49.720;6.576;2023-07-29T13:15:40;98982.56;;;26.54;49.44